Time;durP1;ratioP1;P1;durP2;ratioP2;P2;SDS_P1;SDS_P2;PMS_P1;PMS_P2;Temp;Humidity;BMP_temperature;BMP_pressure;BME280_temperature;BME280_humidity;BME280_pressure;Samples;Min_cycle;Max_cycle;Signal;HPM_P1;HPM_P2
2023/06/29 00:01:05;;;;;;;8.98;4.97;;;19.00;99.90;;;;;;5014064;28;20223;-71
2023/06/29 00:03:32;;;;;;;8.80;4.43;;;19.10;99.90;;;;;;5013566;28;20236;-72
2023/06/29 00:06:01;;;;;;;5.60;3.80;;;19.20;99.90;;;;;;5016740;28;20203;-72
2023/06/29 00:08:34;;;;;;;6.85;4.55;;;19.10;99.90;;;;;;5019302;28;20192;-72
2023/06/29 00:11:04;;;;;;;11.00;4.60;;;19.10;99.90;;;;;;5011464;28;20200;-71
2023/06/29 00:13:31;;;;;;;9.07;4.53;;;19.10;99.90;;;;;;5011967;28;20218;-71
2023/06/29 00:15:58;;;;;;;7.78;4.53;;;19.10;99.90;;;;;;5006445;28;20207;-71
2023/06/29 00:18:30;;;;;;;8.23;4.78;;;19.00;99.90;;;;;;5007025;28;20685;-71
2023/06/29 00:20:57;;;;;;;7.25;4.47;;;19.00;99.90;;;;;;5012462;28;20198;-71
2023/06/29 00:23:26;;;;;;;9.15;4.97;;;19.00;99.90;;;;;;5003099;28;20197;-71
2023/06/29 00:25:55;;;;;;;6.55;4.50;;;19.00;99.90;;;;;;5018164;28;20275;-71
2023/06/29 00:28:22;;;;;;;6.78;4.80;;;18.90;99.90;;;;;;5016962;28;20224;-71
2023/06/29 00:30:49;;;;;;;6.32;4.15;;;18.90;99.90;;;;;;5020659;28;20738;-71
2023/06/29 00:33:16;;;;;;;10.05;4.55;;;18.90;99.90;;;;;;5018630;28;20270;-71
2023/06/29 00:35:43;;;;;;;7.97;4.63;;;18.90;99.90;;;;;;5015704;28;20283;-71
2023/06/29 00:38:10;;;;;;;7.10;3.97;;;18.90;99.90;;;;;;5008595;28;20244;-71
2023/06/29 00:40:37;;;;;;;5.93;4.28;;;18.90;99.90;;;;;;4992777;28;20235;-71
2023/06/29 00:43:05;;;;;;;7.57;4.25;;;18.90;99.90;;;;;;5017279;28;20682;-71
2023/06/29 00:45:32;;;;;;;10.18;4.75;;;19.00;99.90;;;;;;5009645;28;20204;-71
2023/06/29 00:47:59;;;;;;;13.23;4.35;;;19.00;99.90;;;;;;5028476;28;20205;-72
2023/06/29 00:50:26;;;;;;;10.02;4.20;;;19.00;99.90;;;;;;4999552;28;20626;-71
2023/06/29 00:52:54;;;;;;;8.20;4.20;;;19.00;99.90;;;;;;5009585;28;20204;-72
2023/06/29 00:55:21;;;;;;;9.65;4.00;;;18.90;99.90;;;;;;5004623;28;20633;-72
2023/06/29 00:57:48;;;;;;;8.23;4.45;;;18.90;99.90;;;;;;5018945;28;20641;-72
2023/06/29 01:00:17;;;;;;;7.28;4.15;;;18.90;99.90;;;;;;5010386;28;20201;-66
2023/06/29 01:02:46;;;;;;;7.15;4.18;;;18.90;99.90;;;;;;5016861;28;20237;-67
2023/06/29 01:05:15;;;;;;;8.75;4.30;;;18.90;99.90;;;;;;5027816;23;20716;-77
2023/06/29 01:08:02;;;;;;;5.13;3.83;;;18.90;99.90;;;;;;5008670;28;20189;-79
2023/06/29 01:10:32;;;;;;;6.50;3.95;;;18.90;99.90;;;;;;4993034;28;20733;-78
2023/06/29 01:13:01;;;;;;;7.47;4.53;;;19.00;99.90;;;;;;5011628;28;20205;-78
2023/06/29 01:15:30;;;;;;;10.88;5.53;;;19.00;99.90;;;;;;5007937;28;20203;-78
2023/06/29 01:17:59;;;;;;;5.82;4.28;;;18.90;99.90;;;;;;4996352;28;20216;-77
2023/06/29 01:20:31;;;;;;;5.32;3.83;;;18.80;99.90;;;;;;5001401;28;20205;-78
2023/06/29 01:23:24;;;;;;;8.13;4.43;;;19.00;99.90;;;;;;5027788;28;20664;-77
2023/06/29 01:25:54;;;;;;;6.20;4.40;;;18.70;99.90;;;;;;5006280;28;20224;-78
2023/06/29 01:28:25;;;;;;;7.72;3.97;;;18.70;99.90;;;;;;5011487;28;20702;-78
2023/06/29 01:30:52;;;;;;;4.97;3.85;;;18.80;99.90;;;;;;5016325;28;20205;-78
2023/06/29 01:33:22;;;;;;;5.22;3.63;;;18.90;99.90;;;;;;5016803;28;20204;-79
2023/06/29 01:35:53;;;;;;;11.38;4.28;;;18.90;99.90;;;;;;5011959;28;20201;-79
2023/06/29 01:38:44;;;;;;;4.88;3.53;;;18.90;99.90;;;;;;4990012;28;20204;-79
2023/06/29 01:41:16;;;;;;;8.52;4.53;;;18.80;99.90;;;;;;5018712;28;20200;-79
2023/06/29 01:43:44;;;;;;;10.32;4.50;;;18.80;99.90;;;;;;5022294;28;20252;-80
2023/06/29 01:46:14;;;;;;;9.02;4.63;;;18.80;99.90;;;;;;5017445;28;20203;-79
2023/06/29 01:48:42;;;;;;;7.78;3.92;;;18.70;99.90;;;;;;5006885;28;20197;-79
2023/06/29 01:51:13;;;;;;;7.63;4.18;;;18.70;99.90;;;;;;5036861;28;20586;-79
2023/06/29 01:53:40;;;;;;;7.43;4.22;;;18.80;99.90;;;;;;5019188;28;20204;-79
2023/06/29 01:56:07;;;;;;;9.07;4.35;;;18.80;99.90;;;;;;5020881;28;20231;-79
2023/06/29 01:58:34;;;;;;;11.60;4.15;;;18.80;99.90;;;;;;5022403;28;20681;-79
2023/06/29 02:01:02;;;;;;;7.18;4.13;;;18.70;99.90;;;;;;5037460;28;20217;-79
2023/06/29 02:03:29;;;;;;;7.68;4.22;;;18.70;99.90;;;;;;5038489;28;20243;-79
2023/06/29 02:05:56;;;;;;;8.32;4.47;;;18.70;99.90;;;;;;5006055;28;20448;-80
2023/06/29 02:08:23;;;;;;;7.40;4.22;;;18.60;99.90;;;;;;5024883;28;20197;-79
2023/06/29 02:10:50;;;;;;;9.93;4.35;;;18.60;99.90;;;;;;5005952;28;20657;-80
2023/06/29 02:13:17;;;;;;;8.27;4.65;;;18.50;99.90;;;;;;5007430;28;20212;-79
2023/06/29 02:15:44;;;;;;;10.20;4.78;;;18.50;99.90;;;;;;5037047;28;20203;-80
2023/06/29 02:18:12;;;;;;;11.77;4.95;;;18.50;99.90;;;;;;5018045;28;20209;-78
2023/06/29 02:20:40;;;;;;;9.80;4.90;;;18.40;99.90;;;;;;4994556;28;20193;-78
2023/06/29 02:23:07;;;;;;;5.28;4.43;;;18.50;99.90;;;;;;5012863;28;20197;-78
2023/06/29 02:25:35;;;;;;;5.95;4.43;;;18.60;99.90;;;;;;5006968;28;20196;-79
2023/06/29 02:28:06;;;;;;;13.10;4.53;;;18.70;99.90;;;;;;5017035;28;20589;-79
2023/06/29 02:30:33;;;;;;;8.43;4.72;;;18.60;99.90;;;;;;5013602;28;20557;-78
2023/06/29 02:33:01;;;;;;;5.78;4.25;;;18.60;99.90;;;;;;5010861;28;20201;-78
2023/06/29 02:35:28;;;;;;;9.57;4.97;;;18.50;99.90;;;;;;4996873;28;20686;-78
2023/06/29 02:37:55;;;;;;;8.23;4.75;;;18.50;99.90;;;;;;5012014;28;20213;-78
2023/06/29 02:40:22;;;;;;;11.48;5.13;;;18.60;99.90;;;;;;5009772;28;20792;-79
2023/06/29 02:42:49;;;;;;;12.90;4.70;;;18.60;99.90;;;;;;5015769;28;20486;-79
2023/06/29 02:45:16;;;;;;;9.32;4.47;;;18.60;99.90;;;;;;5023346;28;20193;-79
2023/06/29 02:47:43;;;;;;;9.25;5.47;;;18.50;99.90;;;;;;5013931;28;20193;-77
2023/06/29 02:50:11;;;;;;;11.40;4.85;;;18.50;99.90;;;;;;5010320;28;20668;-78
2023/06/29 02:52:45;;;;;;;6.72;4.38;;;18.50;99.90;;;;;;5010541;28;20224;-78
2023/06/29 02:55:12;;;;;;;8.52;5.00;;;18.50;99.90;;;;;;5024510;28;20189;-77
2023/06/29 02:57:39;;;;;;;14.85;4.68;;;18.50;99.90;;;;;;5013885;28;20233;-79
2023/06/29 03:00:09;;;;;;;7.05;4.07;;;18.60;99.90;;;;;;4990606;28;20240;-77
2023/06/29 03:02:38;;;;;;;8.55;5.20;;;18.60;99.90;;;;;;5020534;28;20280;-77
2023/06/29 03:05:07;;;;;;;9.30;4.38;;;18.50;99.90;;;;;;4992441;28;20245;-77
2023/06/29 03:07:34;;;;;;;7.78;5.18;;;18.60;99.90;;;;;;5012668;28;20212;-77
2023/06/29 03:10:02;;;;;;;10.00;4.50;;;18.60;99.90;;;;;;4992988;28;20192;-77
2023/06/29 03:12:29;;;;;;;8.43;4.43;;;18.70;99.90;;;;;;4999030;28;20571;-77
2023/06/29 03:14:56;;;;;;;7.82;4.45;;;18.60;99.90;;;;;;5015624;28;20680;-77
2023/06/29 03:17:24;;;;;;;7.22;4.53;;;18.50;99.90;;;;;;5025626;28;20282;-77
2023/06/29 03:19:51;;;;;;;7.75;4.47;;;18.60;99.90;;;;;;5005627;28;20263;-77
2023/06/29 03:22:18;;;;;;;8.23;4.85;;;18.60;99.90;;;;;;5019752;28;20535;-77
2023/06/29 03:24:45;;;;;;;9.57;4.63;;;18.60;99.90;;;;;;5005576;28;20196;-78
2023/06/29 03:27:12;;;;;;;6.65;4.32;;;18.50;99.90;;;;;;4994433;28;20206;-79
2023/06/29 03:29:39;;;;;;;10.00;4.90;;;18.60;99.90;;;;;;5003042;28;20231;-77
2023/06/29 03:32:07;;;;;;;13.52;5.07;;;18.60;99.90;;;;;;5007106;28;20659;-77
2023/06/29 03:34:34;;;;;;;10.40;4.80;;;18.70;99.90;;;;;;5022297;28;20637;-77
2023/06/29 03:37:01;;;;;;;9.20;4.43;;;18.70;99.90;;;;;;5005802;28;20903;-78
2023/06/29 03:39:28;;;;;;;6.13;4.05;;;18.70;99.90;;;;;;5004548;28;20201;-77
2023/06/29 03:41:56;;;;;;;9.27;4.95;;;18.70;99.90;;;;;;5018186;28;20197;-82
2023/06/29 03:44:23;;;;;;;13.27;5.03;;;18.70;99.90;;;;;;5018331;28;20197;-81
2023/06/29 03:46:52;;;;;;;6.85;4.35;;;18.80;99.90;;;;;;5047508;23;20600;-61
2023/06/29 03:49:19;;;;;;;9.13;4.07;;;18.80;99.90;;;;;;5022165;28;20933;-61
2023/06/29 03:51:46;;;;;;;5.38;4.47;;;18.80;99.90;;;;;;5017286;28;20239;-61
2023/06/29 03:54:13;;;;;;;6.07;4.45;;;18.80;99.90;;;;;;5016900;28;20676;-61
2023/06/29 03:56:40;;;;;;;7.03;4.35;;;18.70;99.90;;;;;;5021463;28;20691;-61
2023/06/29 03:59:07;;;;;;;5.10;4.20;;;18.80;99.90;;;;;;5020748;28;20665;-62
2023/06/29 04:01:34;;;;;;;8.80;4.07;;;18.80;99.90;;;;;;5023346;28;20738;-61
2023/06/29 04:04:01;;;;;;;7.47;4.15;;;18.90;99.90;;;;;;5028074;28;20273;-62
2023/06/29 04:06:28;;;;;;;8.55;4.53;;;19.00;99.90;;;;;;5027779;28;20192;-62
2023/06/29 04:08:55;;;;;;;6.57;4.30;;;19.00;99.90;;;;;;5026027;28;20207;-61
2023/06/29 04:11:22;;;;;;;7.72;4.40;;;19.10;99.90;;;;;;5027543;28;20745;-61
2023/06/29 04:13:49;;;;;;;10.27;3.85;;;19.20;99.90;;;;;;5029910;28;20204;-61
2023/06/29 04:16:16;;;;;;;6.38;4.18;;;19.20;99.90;;;;;;5027120;28;20211;-61
2023/06/29 04:18:43;;;;;;;6.53;3.63;;;19.20;99.90;;;;;;5026473;28;20307;-61
2023/06/29 04:21:10;;;;;;;6.53;4.18;;;19.20;99.90;;;;;;5029285;28;20192;-61
2023/06/29 04:23:37;;;;;;;7.50;3.85;;;19.20;99.90;;;;;;5028959;28;20197;-61
2023/06/29 04:26:04;;;;;;;9.38;4.18;;;19.20;99.90;;;;;;5026937;28;20598;-61
2023/06/29 04:28:34;;;;;;;6.53;4.07;;;19.20;99.90;;;;;;5028388;28;20273;-61
2023/06/29 04:31:02;;;;;;;7.35;4.25;;;19.20;99.90;;;;;;5022252;28;20296;-61
2023/06/29 04:33:29;;;;;;;6.80;4.35;;;19.20;99.90;;;;;;5029157;28;20184;-62
2023/06/29 04:35:56;;;;;;;7.75;4.50;;;19.20;99.90;;;;;;5027685;28;20223;-61
2023/06/29 04:38:25;;;;;;;11.30;4.65;;;19.20;99.90;;;;;;5026541;28;21031;-61
2023/06/29 04:41:03;;;;;;;11.75;4.22;;;19.10;99.90;;;;;;5025356;28;20196;-61
2023/06/29 04:43:31;;;;;;;8.55;3.80;;;19.00;99.90;;;;;;5029366;28;20713;-61
2023/06/29 04:46:01;;;;;;;4.85;4.05;;;19.10;99.90;;;;;;5028505;28;20188;-62
2023/06/29 04:48:37;;;;;;;9.07;4.55;;;19.10;99.90;;;;;;5024432;28;20232;-60
2023/06/29 04:51:05;;;;;;;12.35;4.90;;;19.10;99.90;;;;;;5027100;28;20200;-60
2023/06/29 04:53:33;;;;;;;5.78;3.85;;;19.30;99.90;;;;;;5024225;28;20271;-61
2023/06/29 04:56:01;;;;;;;7.60;4.63;;;19.20;99.90;;;;;;5029796;28;20200;-61
2023/06/29 04:58:28;;;;;;;8.25;4.00;;;19.40;99.90;;;;;;5025606;28;20224;-60
2023/06/29 05:00:56;;;;;;;6.47;3.72;;;19.60;99.90;;;;;;5023204;28;20208;-60
2023/06/29 05:03:24;;;;;;;6.53;3.58;;;19.70;99.90;;;;;;5026095;28;20220;-60
2023/06/29 05:05:52;;;;;;;7.18;3.70;;;19.90;99.90;;;;;;5026959;28;20196;-61
2023/06/29 05:08:19;;;;;;;6.57;4.57;;;20.10;99.90;;;;;;5029454;28;20200;-61
2023/06/29 05:10:46;;;;;;;5.38;3.97;;;20.10;99.90;;;;;;5024781;28;20215;-60
2023/06/29 05:13:13;;;;;;;6.95;3.92;;;20.00;99.90;;;;;;5026208;28;20220;-60
2023/06/29 05:15:40;;;;;;;6.30;4.25;;;20.00;99.90;;;;;;5026346;28;20212;-60
2023/06/29 05:18:09;;;;;;;14.40;4.18;;;20.20;99.90;;;;;;5027224;28;20216;-61
2023/06/29 05:20:36;;;;;;;6.57;4.15;;;20.00;99.90;;;;;;5025892;28;20188;-61
2023/06/29 05:23:03;;;;;;;7.47;4.35;;;19.90;99.90;;;;;;5028756;28;20199;-60
2023/06/29 05:25:29;;;;;;;6.80;4.25;;;19.90;99.90;;;;;;5024603;28;20185;-60
2023/06/29 05:27:57;;;;;;;6.45;3.95;;;19.70;99.90;;;;;;5024595;28;20631;-60
2023/06/29 05:30:23;;;;;;;8.70;4.18;;;20.00;99.90;;;;;;5025087;28;20565;-62
2023/06/29 05:32:51;;;;;;;10.07;4.60;;;20.20;99.90;;;;;;5025214;28;20254;-61
2023/06/29 05:35:18;;;;;;;12.30;3.92;;;20.20;99.90;;;;;;5021275;28;20203;-61
2023/06/29 05:37:46;;;;;;;6.68;4.38;;;20.50;99.90;;;;;;5023532;28;20196;-60
2023/06/29 05:40:13;;;;;;;8.02;4.45;;;20.60;99.90;;;;;;5024706;28;20203;-61
2023/06/29 05:42:40;;;;;;;7.10;4.18;;;20.50;99.90;;;;;;5024505;28;20200;-61
2023/06/29 05:45:08;;;;;;;6.93;4.00;;;20.50;99.90;;;;;;5025130;28;20180;-61
2023/06/29 05:47:34;;;;;;;6.22;3.75;;;20.70;99.90;;;;;;5022900;28;20232;-60
2023/06/29 05:50:03;;;;;;;8.48;4.30;;;20.70;99.90;;;;;;5021541;28;20310;-61
2023/06/29 05:52:30;;;;;;;7.47;3.90;;;20.70;99.90;;;;;;5021923;28;20197;-61
2023/06/29 05:54:57;;;;;;;9.35;3.90;;;20.70;99.90;;;;;;5021636;28;20717;-61
2023/06/29 05:57:24;;;;;;;7.65;3.92;;;20.70;99.90;;;;;;5023419;28;20441;-61
2023/06/29 05:59:51;;;;;;;7.40;4.35;;;20.80;99.90;;;;;;5022900;28;20204;-61
2023/06/29 06:02:18;;;;;;;5.68;3.45;;;21.10;99.90;;;;;;5027234;28;20238;-61
2023/06/29 06:04:45;;;;;;;7.43;3.72;;;21.40;99.90;;;;;;5021922;28;20216;-61
2023/06/29 06:07:15;;;;;;;4.95;3.58;;;21.50;99.90;;;;;;5015976;28;20193;-61
2023/06/29 06:09:42;;;;;;;9.43;4.32;;;21.50;99.90;;;;;;5020270;28;20199;-61
2023/06/29 06:12:09;;;;;;;6.72;4.28;;;21.60;99.90;;;;;;5021083;28;20557;-61
2023/06/29 06:14:37;;;;;;;6.75;4.40;;;21.40;99.90;;;;;;5019919;28;20278;-61
2023/06/29 06:17:04;;;;;;;7.38;4.88;;;21.00;99.90;;;;;;5017168;28;20624;-61
2023/06/29 06:19:31;;;;;;;8.13;4.00;;;20.70;99.90;;;;;;5019839;28;20266;-61
2023/06/29 06:21:58;;;;;;;7.43;4.47;;;20.90;99.90;;;;;;5026470;28;20605;-61
2023/06/29 06:24:25;;;;;;;9.07;4.97;;;21.10;99.90;;;;;;5022384;28;21697;-61
2023/06/29 06:26:52;;;;;;;7.72;4.30;;;21.40;99.90;;;;;;5024277;28;20192;-61
2023/06/29 06:29:19;;;;;;;5.80;4.60;;;21.30;99.90;;;;;;5016822;28;20936;-61
2023/06/29 06:31:46;;;;;;;9.13;4.22;;;21.40;99.90;;;;;;5022632;28;20580;-63
2023/06/29 06:34:13;;;;;;;5.32;4.07;;;21.40;99.90;;;;;;5022153;28;20255;-61
2023/06/29 06:36:40;;;;;;;10.20;4.03;;;21.50;99.90;;;;;;5024626;28;20659;-61
2023/06/29 06:39:07;;;;;;;8.15;4.20;;;21.30;99.90;;;;;;5021603;28;20231;-61
2023/06/29 06:41:34;;;;;;;8.80;4.75;;;21.30;99.90;;;;;;5022711;28;20648;-60
2023/06/29 06:44:01;;;;;;;9.13;4.55;;;21.10;99.90;;;;;;5019914;28;20188;-60
2023/06/29 06:46:28;;;;;;;8.65;4.70;;;21.30;99.90;;;;;;5023573;28;20235;-61
2023/06/29 06:48:55;;;;;;;9.48;4.05;;;21.40;99.90;;;;;;5017006;28;20682;-61
2023/06/29 06:51:22;;;;;;;5.90;3.83;;;21.50;99.90;;;;;;5021762;28;20212;-61
2023/06/29 06:53:49;;;;;;;6.80;4.68;;;21.70;99.90;;;;;;5020979;28;20711;-61
2023/06/29 06:56:16;;;;;;;8.48;4.30;;;21.70;99.90;;;;;;5012413;28;20184;-60
2023/06/29 06:58:43;;;;;;;6.65;4.10;;;21.80;99.90;;;;;;5019587;28;20591;-61
2023/06/29 07:01:11;;;;;;;7.82;3.45;;;21.80;99.90;;;;;;5017306;28;20216;-61
2023/06/29 07:03:38;;;;;;;5.00;4.05;;;21.70;99.90;;;;;;5017271;28;20212;-61
2023/06/29 07:06:05;;;;;;;6.03;3.95;;;21.80;99.90;;;;;;5016970;28;20212;-61
2023/06/29 07:08:33;;;;;;;8.15;4.63;;;22.00;99.90;;;;;;5021123;28;20261;-61
2023/06/29 07:11:00;;;;;;;8.35;4.35;;;22.00;99.90;;;;;;5019409;28;20281;-61
2023/06/29 07:13:27;;;;;;;7.88;4.03;;;21.90;99.90;;;;;;5017445;28;20196;-61
2023/06/29 07:15:55;;;;;;;10.05;4.70;;;21.70;99.90;;;;;;5017218;28;20200;-61
2023/06/29 07:18:22;;;;;;;6.90;3.80;;;21.50;99.90;;;;;;5017795;28;20690;-61
2023/06/29 07:20:49;;;;;;;6.88;4.25;;;21.70;99.90;;;;;;5021908;28;20682;-64
2023/06/29 07:23:19;;;;;;;6.78;3.97;;;21.80;99.90;;;;;;5018937;28;20294;-61
2023/06/29 07:25:50;;;;;;;10.13;4.20;;;21.90;99.90;;;;;;5017126;28;20300;-60
2023/06/29 07:28:17;;;;;;;7.40;3.58;;;21.90;99.90;;;;;;5024410;28;20200;-61
2023/06/29 07:30:44;;;;;;;6.75;3.63;;;22.10;99.90;;;;;;5014246;28;20795;-61
2023/06/29 07:33:11;;;;;;;7.82;3.95;;;22.30;99.90;;;;;;5017457;28;20227;-61
2023/06/29 07:35:38;;;;;;;11.82;4.22;;;22.30;99.90;;;;;;5018627;28;20235;-61
2023/06/29 07:38:05;;;;;;;10.60;4.00;;;22.80;99.90;;;;;;5019487;28;20224;-61
2023/06/29 07:40:32;;;;;;;4.93;3.22;;;23.00;99.90;;;;;;5017367;28;20603;-61
2023/06/29 07:42:59;;;;;;;9.70;4.35;;;23.00;99.90;;;;;;5019238;28;20254;-61
2023/06/29 07:45:26;;;;;;;7.28;4.05;;;22.50;99.90;;;;;;5018164;28;20290;-61
2023/06/29 07:47:53;;;;;;;7.07;3.80;;;22.60;99.90;;;;;;5017544;28;20251;-61
2023/06/29 07:50:20;;;;;;;7.18;3.30;;;22.80;99.90;;;;;;5019788;28;20196;-61
2023/06/29 07:52:47;;;;;;;7.20;3.42;;;23.10;99.90;;;;;;5018269;28;20250;-61
2023/06/29 07:55:14;;;;;;;5.75;3.33;;;23.10;99.90;;;;;;5014352;28;20243;-61
2023/06/29 07:57:41;;;;;;;6.43;3.63;;;23.10;99.90;;;;;;5019665;28;20201;-61
2023/06/29 08:00:12;;;;;;;10.70;3.45;;;23.20;99.90;;;;;;5020093;28;20204;-61
2023/06/29 08:02:45;;;;;;;3.88;2.70;;;23.10;99.90;;;;;;5019756;28;20191;-61
2023/06/29 08:05:13;;;;;;;6.53;3.05;;;23.40;99.90;;;;;;5020733;28;20212;-61
2023/06/29 08:07:43;;;;;;;5.97;3.50;;;23.30;99.90;;;;;;5017151;28;20189;-61
2023/06/29 08:10:10;;;;;;;5.22;3.20;;;24.00;99.90;;;;;;5036475;28;20664;-61
2023/06/29 08:12:37;;;;;;;6.03;3.47;;;23.90;99.90;;;;;;5018043;28;20257;-61
2023/06/29 08:15:05;;;;;;;5.40;3.17;;;23.90;99.90;;;;;;5021508;28;20250;-61
2023/06/29 08:17:32;;;;;;;4.30;3.03;;;23.80;99.90;;;;;;5013837;28;20716;-61
2023/06/29 08:19:59;;;;;;;5.10;3.22;;;24.10;99.90;;;;;;5021229;28;20296;-61
2023/06/29 08:22:26;;;;;;;4.38;2.90;;;23.90;99.90;;;;;;5021384;28;20228;-57
2023/06/29 08:24:53;;;;;;;5.68;3.30;;;24.00;99.90;;;;;;5018767;28;20876;-57
2023/06/29 08:27:20;;;;;;;4.63;3.15;;;24.40;99.90;;;;;;5019791;28;20192;-56
2023/06/29 08:29:47;;;;;;;4.55;3.05;;;24.40;99.90;;;;;;5018171;28;20197;-57
2023/06/29 08:32:14;;;;;;;4.90;2.58;;;24.60;99.90;;;;;;5015430;28;20196;-56
2023/06/29 08:34:41;;;;;;;5.00;2.75;;;24.90;99.90;;;;;;5017607;28;20675;-57
2023/06/29 08:37:08;;;;;;;3.35;2.80;;;25.10;99.90;;;;;;5017197;28;20262;-57
2023/06/29 08:39:35;;;;;;;4.80;2.65;;;25.20;99.90;;;;;;5019632;28;22583;-57
2023/06/29 08:42:02;;;;;;;4.63;3.10;;;25.50;99.90;;;;;;5019291;28;20655;-56
2023/06/29 08:44:34;;;;;;;5.95;3.03;;;25.80;99.90;;;;;;5020943;28;20545;-57
2023/06/29 08:47:02;;;;;;;4.63;2.90;;;26.00;99.90;;;;;;5020336;28;20278;-57
2023/06/29 08:49:30;;;;;;;5.00;3.25;;;26.50;99.90;;;;;;5026221;28;20215;-57
2023/06/29 08:51:59;;;;;;;3.55;2.97;;;26.60;99.90;;;;;;5023384;28;20262;-57
2023/06/29 08:54:26;;;;;;;4.65;2.92;;;26.20;99.90;;;;;;5025706;28;20680;-57
2023/06/29 08:56:55;;;;;;;8.10;3.17;;;26.10;99.90;;;;;;5026303;28;20200;-57
2023/06/29 08:59:23;;;;;;;5.97;3.08;;;26.70;99.90;;;;;;5025425;28;20972;-58
2023/06/29 09:01:51;;;;;;;5.15;2.58;;;27.20;99.90;;;;;;5023716;28;20508;-57
2023/06/29 09:04:19;;;;;;;4.72;3.03;;;27.60;99.90;;;;;;5022376;28;20230;-58
2023/06/29 09:06:46;;;;;;;4.82;3.35;;;28.20;99.90;;;;;;5024734;28;20193;-57
2023/06/29 09:09:14;;;;;;;4.60;2.65;;;28.20;99.60;;;;;;5025110;28;20279;-58
2023/06/29 09:11:41;;;;;;;4.55;2.50;;;28.30;99.40;;;;;;5027026;28;20191;-58
2023/06/29 09:14:09;;;;;;;6.78;3.10;;;28.40;99.60;;;;;;5022591;28;20192;-58
2023/06/29 09:16:52;;;;;;;4.75;2.67;;;28.60;97.60;;;;;;5022825;28;20208;-57
2023/06/29 09:19:20;;;;;;;4.05;2.78;;;28.40;98.00;;;;;;5024861;28;20216;-57
2023/06/29 09:21:48;;;;;;;5.30;3.00;;;27.60;97.40;;;;;;5024620;28;20189;-58
2023/06/29 09:24:16;;;;;;;6.63;3.63;;;27.10;98.70;;;;;;5024420;28;20193;-57
2023/06/29 09:26:43;;;;;;;4.78;3.05;;;27.70;98.00;;;;;;5024846;28;20192;-58
2023/06/29 09:29:10;;;;;;;5.90;3.63;;;28.00;97.50;;;;;;5025828;28;20675;-57
2023/06/29 09:31:37;;;;;;;6.30;3.15;;;28.50;97.20;;;;;;5025348;28;20255;-58
2023/06/29 09:34:18;;;;;;;4.40;3.25;;;28.30;95.70;;;;;;5022932;28;20303;-57
2023/06/29 09:36:45;;;;;;;24.70;12.52;;;27.90;96.40;;;;;;5022561;28;20200;-57
2023/06/29 09:39:12;;;;;;;5.38;3.22;;;27.90;96.10;;;;;;5025415;28;20266;-57
2023/06/29 09:41:49;;;;;;;5.43;3.13;;;28.30;95.70;;;;;;5023934;28;20568;-57
2023/06/29 09:44:20;;;;;;;8.32;4.57;;;29.40;95.70;;;;;;5023921;28;20188;-57
2023/06/29 09:47:02;;;;;;;4.80;2.80;;;29.70;93.10;;;;;;5018636;28;20248;-57
2023/06/29 09:49:47;;;;;;;6.00;3.08;;;30.40;94.10;;;;;;5022630;28;20237;-57
2023/06/29 09:52:16;;;;;;;5.80;2.90;;;31.00;92.20;;;;;;5023607;28;20251;-57
2023/06/29 09:54:43;;;;;;;6.25;3.33;;;30.40;92.50;;;;;;5020708;28;20675;-57
2023/06/29 09:57:11;;;;;;;7.13;2.78;;;29.70;91.90;;;;;;5021358;28;20200;-58
2023/06/29 09:59:44;;;;;;;3.53;2.53;;;29.50;92.20;;;;;;5023179;28;20283;-57
2023/06/29 10:02:12;;;;;;;5.68;2.75;;;29.30;91.40;;;;;;5024901;28;20813;-60
2023/06/29 10:04:41;;;;;;;3.25;2.50;;;30.10;91.40;;;;;;5021128;28;20246;-57
2023/06/29 10:07:11;;;;;;;6.50;3.65;;;30.90;91.80;;;;;;5038504;28;20262;-59
2023/06/29 10:09:41;;;;;;;6.68;3.10;;;29.10;88.00;;;;;;5024119;28;20204;-57
2023/06/29 10:12:12;;;;;;;4.13;2.33;;;29.90;91.00;;;;;;5025006;28;20197;-60
2023/06/29 10:14:42;;;;;;;5.68;2.92;;;30.50;88.30;;;;;;5021980;28;20196;-57
2023/06/29 10:17:12;;;;;;;5.13;3.00;;;29.70;87.80;;;;;;5020351;28;20262;-58
2023/06/29 10:19:43;;;;;;;4.90;2.78;;;29.00;87.00;;;;;;5020447;28;20585;-58
2023/06/29 10:22:15;;;;;;;5.85;2.78;;;29.20;89.20;;;;;;5015900;28;20204;-58
2023/06/29 10:25:06;;;;;;;3.92;2.40;;;30.00;90.00;;;;;;5019758;28;20200;-58
2023/06/29 10:27:35;;;;;;;6.68;3.17;;;29.80;88.40;;;;;;5015796;28;20200;-58
2023/06/29 10:30:04;;;;;;;3.97;2.72;;;29.40;85.20;;;;;;5022113;28;20196;-59
2023/06/29 10:32:36;;;;;;;6.70;2.83;;;29.00;87.30;;;;;;5023555;28;20204;-58
2023/06/29 10:35:12;;;;;;;3.70;2.40;;;28.30;85.20;;;;;;5022658;28;20203;-58
2023/06/29 10:37:48;;;;;;;5.82;2.72;;;27.60;84.20;;;;;;5014173;28;20200;-58
2023/06/29 10:40:19;;;;;;;3.78;2.35;;;27.60;87.40;;;;;;5019826;28;20281;-58
2023/06/29 10:42:46;;;;;;;4.35;2.58;;;27.50;87.90;;;;;;5022507;28;20196;-58
2023/06/29 10:45:16;;;;;;;4.57;2.45;;;27.60;87.50;;;;;;5024992;28;20341;-59
2023/06/29 10:47:44;;;;;;;5.53;1.80;;;27.10;86.50;;;;;;5020846;28;20251;-58
2023/06/29 10:50:12;;;;;;;4.15;2.67;;;27.60;86.50;;;;;;5024184;28;20198;-58
2023/06/29 10:52:40;;;;;;;2.97;2.10;;;27.90;86.20;;;;;;5022993;28;20668;-59
2023/06/29 10:55:25;;;;;;;5.00;2.05;;;27.40;86.10;;;;;;5023706;28;20266;-58
2023/06/29 10:57:59;;;;;;;2.65;1.67;;;27.40;86.40;;;;;;5020417;28;20223;-58
2023/06/29 11:00:26;;;;;;;3.47;2.08;;;27.20;87.80;;;;;;5023536;28;20574;-58
2023/06/29 11:02:54;;;;;;;3.42;1.98;;;27.00;87.00;;;;;;5020946;28;20266;-58
2023/06/29 11:05:22;;;;;;;3.60;2.30;;;26.90;86.40;;;;;;5022926;28;20196;-59
2023/06/29 11:07:51;;;;;;;3.03;2.35;;;26.90;88.70;;;;;;5020633;28;20196;-58
2023/06/29 11:10:22;;;;;;;5.63;2.33;;;27.10;88.00;;;;;;5023850;28;20218;-58
2023/06/29 11:12:50;;;;;;;3.55;2.35;;;27.00;86.70;;;;;;5021065;28;20287;-58
2023/06/29 11:15:18;;;;;;;5.80;2.67;;;27.10;85.80;;;;;;5023379;28;20652;-59
2023/06/29 11:18:07;;;;;;;4.63;2.08;;;26.60;88.20;;;;;;5020496;28;20192;-58
2023/06/29 11:20:39;;;;;;;3.90;2.58;;;26.70;88.50;;;;;;5023582;28;20629;-58
2023/06/29 11:23:08;;;;;;;4.95;2.50;;;26.80;86.10;;;;;;5019510;28;20196;-58
2023/06/29 11:25:36;;;;;;;11.02;4.20;;;27.00;87.30;;;;;;5019378;28;20212;-58
2023/06/29 11:28:03;;;;;;;4.68;3.00;;;27.00;88.20;;;;;;5020790;28;20598;-58
2023/06/29 11:30:31;;;;;;;5.55;2.85;;;26.70;86.10;;;;;;5021379;28;20200;-59
2023/06/29 11:32:59;;;;;;;5.32;3.13;;;27.00;87.20;;;;;;5022676;28;20237;-58
2023/06/29 11:35:26;;;;;;;4.30;2.75;;;26.50;86.40;;;;;;5023282;28;20200;-58
2023/06/29 11:38:02;;;;;;;5.82;2.80;;;26.60;86.30;;;;;;5021446;28;20193;-58
2023/06/29 11:40:29;;;;;;;9.32;3.42;;;26.80;86.80;;;;;;5023808;28;20290;-58
2023/06/29 11:42:56;;;;;;;6.55;3.45;;;26.60;85.50;;;;;;5023367;28;20883;-61
2023/06/29 11:45:23;;;;;;;3.95;2.70;;;26.20;85.20;;;;;;5020333;28;20303;-59
2023/06/29 11:47:54;;;;;;;4.28;2.67;;;26.10;89.10;;;;;;5018480;28;20236;-58
2023/06/29 11:50:23;;;;;;;5.80;2.75;;;25.90;99.90;;;;;;5019533;28;20553;-58
2023/06/29 11:52:50;;;;;;;5.75;2.90;;;26.00;87.60;;;;;;5021278;28;20770;-58
2023/06/29 11:55:18;;;;;;;6.60;3.38;;;26.10;88.00;;;;;;5020735;28;20552;-58
2023/06/29 11:57:50;;;;;;;6.82;3.30;;;26.00;90.10;;;;;;5019563;28;20371;-58
2023/06/29 12:00:17;;;;;;;4.97;3.17;;;26.10;88.50;;;;;;5019697;28;20204;-62
2023/06/29 12:02:44;;;;;;;8.05;3.53;;;25.70;88.70;;;;;;5022364;28;20294;-58
2023/06/29 12:05:11;;;;;;;5.63;3.03;;;25.70;89.80;;;;;;5019440;28;20212;-58
2023/06/29 12:07:40;;;;;;;6.50;3.38;;;25.80;88.50;;;;;;5019845;28;20196;-58
2023/06/29 12:10:27;;;;;;;5.30;3.15;;;26.10;89.50;;;;;;5020115;28;20687;-59
2023/06/29 12:12:59;;;;;;;3.70;2.72;;;26.20;88.00;;;;;;5020202;28;20208;-59
2023/06/29 12:15:27;;;;;;;5.63;3.35;;;26.10;89.60;;;;;;5018115;28;20196;-59
2023/06/29 12:18:10;;;;;;;5.72;3.45;;;26.10;88.50;;;;;;5018436;28;20259;-58
2023/06/29 12:20:43;;;;;;;7.35;3.22;;;25.90;88.20;;;;;;5020366;28;20220;-57
2023/06/29 12:23:13;;;;;;;7.75;3.33;;;25.90;98.70;;;;;;5023887;28;20314;-58
2023/06/29 12:25:44;;;;;;;4.72;2.97;;;26.00;89.00;;;;;;5020429;28;20341;-58
2023/06/29 12:28:12;;;;;;;8.05;4.15;;;25.80;88.20;;;;;;5021197;28;20267;-59
2023/06/29 12:30:40;;;;;;;5.47;3.00;;;25.90;89.60;;;;;;5022055;28;20216;-58
2023/06/29 12:33:08;;;;;;;5.88;3.42;;;26.00;89.70;;;;;;5023354;28;20204;-58
2023/06/29 12:35:35;;;;;;;7.63;3.40;;;26.20;88.90;;;;;;5026257;28;20189;-61
2023/06/29 12:38:03;;;;;;;7.30;3.75;;;26.00;90.30;;;;;;5023628;28;20202;-58
2023/06/29 12:40:30;;;;;;;7.75;3.67;;;25.80;89.40;;;;;;5024794;28;20197;-58
2023/06/29 12:43:00;;;;;;;5.82;3.47;;;26.00;90.40;;;;;;5026061;28;20189;-58
2023/06/29 12:45:27;;;;;;;6.50;3.60;;;25.90;88.00;;;;;;5025722;28;20215;-58
2023/06/29 12:47:55;;;;;;;8.52;4.05;;;25.80;89.30;;;;;;5019260;28;20614;-58
2023/06/29 12:50:22;;;;;;;6.03;3.10;;;26.20;90.10;;;;;;5024685;28;20225;-58
2023/06/29 12:52:49;;;;;;;8.02;4.00;;;26.30;88.80;;;;;;5024724;28;20208;-58